Terminal Aerodrome Forecast
Issued by NWS Charleston, WV

Current Version | Previous Version | Text Only | Print | Product List | Glossary Off
Versions: 1 2 3 4 5 6 7 8 9 10 11 12 13 14 15 16 17 18 19 20 21 22 23 24 25 26 27 28 29 30 31

000
FTUS41 KRLX 181232 AAA
TAFEKN
TAF AMD
KEKN 181232Z 1813/1912 VRB03KT P6SM OVC080 WS010/24035KT
     FM181400 20009KT P6SM -SHRA OVC060
     FM181600 20010G16KT P6SM OVC050
     FM182000 21013G21KT P6SM OVC050
     FM190100 20014G24KT P6SM -SHRA OVC045
     FM190600 25015G30KT 3SM -SHRA OVC015
     FM190900 27016G31KT 3SM -SHRA OVC010=

USA.gov is the U.S. government's official web portal to all federal, state and local government web resources and services.